KTPL/TPL METAR and TAF weather

Enter ICAO airport designator
Station Type Date Time Source
KTPL METAR 2022/11/26 08:47 UTC NOAA

KTPL 260847Z AUTO 26014G17KT 2SM RA BR BKN004 OVC008 12/12 A2999 RMK AO2 P0011


Station Type Date Time Source
KTPL Decoded METAR 2022/11/26 08:47 UTC NOAA

Temple, Draughon-Miller Central Texas Regional Airport, TX, United States (KTPL) 31-09N 097-24W
Nov 26, 2022 - 03:47 AM EST / 2022.11.26 0847 UTC
Wind: from the W (260 degrees) at 16 MPH (14 KT) gusting to 20 MPH (17 KT):0
Visibility: 2 mile(s):0
Sky conditions: overcast
Weather: rain; mist
Precipitation last hour: 0.11 inches
Temperature: 53 F (12 C)
Dew Point: 53 F (12 C)
Relative Humidity: 100%
Pressure (altimeter): 29.99 in. Hg (1015 hPa)
ob: KTPL 260847Z AUTO 26014G17KT 2SM RA BR BKN004 OVC008 12/12 A2999 RMK AO2 P0011
cycle: 9

Station Type Date Time Source
KTPL TAF UTC NOAA

Error!

Example: see airport list